Time;durP1;ratioP1;P1;durP2;ratioP2;P2;SDS_P1;SDS_P2;PMS_P1;PMS_P2;Temp;Humidity;BMP_temperature;BMP_pressure;BME280_temperature;BME280_humidity;BME280_pressure;Samples;Min_cycle;Max_cycle;Signal;HPM_P1;HPM_P2
2021/04/28 00:02:09;;;;;;;7.40;4.85;;;;;;;;;;5138337;27;20380;-67
2021/04/28 00:04:35;;;;;;;8.80;5.50;;;;;;;;;;5139017;27;20464;-67
2021/04/28 00:07:03;;;;;;;8.48;5.55;;;;;;;;;;5138686;27;20083;-67
2021/04/28 00:09:29;;;;;;;7.93;5.22;;;;;;;;;;5139156;27;20043;-67
2021/04/28 00:11:55;;;;;;;8.77;5.60;;;;;;;;;;5138625;27;20047;-67
2021/04/28 00:14:22;;;;;;;8.57;6.03;;;;;;;;;;5139004;27;20043;-67
2021/04/28 00:16:48;;;;;;;8.50;5.20;;;;;;;;;;5138105;27;20091;-67
2021/04/28 00:19:14;;;;;;;10.13;6.60;;;;;;;;;;5138163;27;20047;-67
2021/04/28 00:21:41;;;;;;;9.55;5.78;;;;;;;;;;5138455;27;20070;-67
2021/04/28 00:24:09;;;;;;;8.05;5.82;;;;;;;;;;5138206;27;20391;-67
2021/04/28 00:26:35;;;;;;;8.25;5.28;;;;;;;;;;5138185;27;20055;-67
2021/04/28 00:29:01;;;;;;;9.15;5.80;;;;;;;;;;5137960;27;20058;-67
2021/04/28 00:31:27;;;;;;;8.50;5.70;;;;;;;;;;5138492;27;20051;-67
2021/04/28 00:33:53;;;;;;;10.10;6.55;;;;;;;;;;5138014;27;20059;-67
2021/04/28 00:36:19;;;;;;;8.20;5.90;;;;;;;;;;5138316;27;20074;-68
2021/04/28 00:38:45;;;;;;;8.43;5.88;;;;;;;;;;5138102;27;20111;-67
2021/04/28 00:41:11;;;;;;;9.85;6.05;;;;;;;;;;5136959;27;20082;-67
2021/04/28 00:43:38;;;;;;;10.48;5.80;;;;;;;;;;5124099;27;20043;-67
2021/04/28 00:46:04;;;;;;;9.25;5.85;;;;;;;;;;5134138;27;20051;-67
2021/04/28 00:48:31;;;;;;;8.55;5.95;;;;;;;;;;5138137;27;20050;-67
2021/04/28 00:50:57;;;;;;;8.90;6.10;;;;;;;;;;5137923;27;20472;-67
2021/04/28 00:53:24;;;;;;;10.48;5.40;;;;;;;;;;5137763;27;20055;-67
2021/04/28 00:55:51;;;;;;;8.35;4.93;;;;;;;;;;5137816;27;20369;-67
2021/04/28 00:58:18;;;;;;;8.40;5.57;;;;;;;;;;5137414;27;20096;-67
2021/04/28 01:00:44;;;;;;;9.05;6.07;;;;;;;;;;5137324;27;20445;-67
2021/04/28 01:03:10;;;;;;;10.90;6.28;;;;;;;;;;5136078;27;20043;-68
2021/04/28 01:05:38;;;;;;;8.68;5.25;;;;;;;;;;5135331;27;20051;-68
2021/04/28 01:08:04;;;;;;;8.63;5.85;;;;;;;;;;5135088;27;20055;-68
2021/04/28 01:10:32;;;;;;;8.13;5.80;;;;;;;;;;5135555;27;20057;-68
2021/04/28 01:12:58;;;;;;;9.10;6.15;;;;;;;;;;5135063;27;20047;-67
2021/04/28 01:15:26;;;;;;;9.43;6.05;;;;;;;;;;5135349;27;20055;-68
2021/04/28 01:17:52;;;;;;;8.50;6.13;;;;;;;;;;5134766;27;20047;-68
2021/04/28 01:20:20;;;;;;;9.77;5.75;;;;;;;;;;5135100;27;20062;-67
2021/04/28 01:22:48;;;;;;;11.27;6.60;;;;;;;;;;5134943;27;20043;-68
2021/04/28 01:25:16;;;;;;;12.93;7.55;;;;;;;;;;5134472;27;20384;-68
2021/04/28 01:27:44;;;;;;;10.32;6.18;;;;;;;;;;5134558;27;20043;-69
2021/04/28 01:30:13;;;;;;;12.60;7.32;;;;;;;;;;5134960;27;20058;-68
2021/04/28 01:32:41;;;;;;;11.50;7.32;;;;;;;;;;5134824;27;20043;-68
2021/04/28 01:35:09;;;;;;;9.07;5.93;;;;;;;;;;5134546;27;20104;-68
2021/04/28 01:37:35;;;;;;;11.25;7.00;;;;;;;;;;5134476;27;20452;-68
2021/04/28 01:40:04;;;;;;;10.18;6.53;;;;;;;;;;5134783;27;20437;-68
2021/04/28 01:42:30;;;;;;;10.40;6.60;;;;;;;;;;5131973;27;20058;-67
2021/04/28 01:44:56;;;;;;;12.00;7.07;;;;;;;;;;5118480;27;20051;-68
2021/04/28 01:47:22;;;;;;;10.27;6.60;;;;;;;;;;5123580;27;20051;-68
2021/04/28 01:49:49;;;;;;;9.85;6.18;;;;;;;;;;5134217;27;20055;-68
2021/04/28 01:52:15;;;;;;;14.63;8.13;;;;;;;;;;5134209;27;20667;-68
2021/04/28 01:54:41;;;;;;;13.27;7.45;;;;;;;;;;5134195;27;20054;-68
2021/04/28 01:57:09;;;;;;;9.57;6.50;;;;;;;;;;5132984;27;20389;-67
2021/04/28 01:59:35;;;;;;;11.48;6.65;;;;;;;;;;5113469;28;20048;-67
2021/04/28 02:02:03;;;;;;;10.50;6.75;;;;;;;;;;5129326;27;20047;-68
2021/04/28 02:04:29;;;;;;;10.07;7.22;;;;;;;;;;5133981;27;20047;-68
2021/04/28 02:06:56;;;;;;;11.48;7.28;;;;;;;;;;5134153;27;20179;-68
2021/04/28 02:09:22;;;;;;;12.05;7.07;;;;;;;;;;5134171;27;20437;-68
2021/04/28 02:11:48;;;;;;;9.70;6.53;;;;;;;;;;5133629;27;20066;-67
2021/04/28 02:14:16;;;;;;;12.13;6.78;;;;;;;;;;5133759;27;20570;-67
2021/04/28 02:16:43;;;;;;;10.25;7.55;;;;;;;;;;5133944;27;20670;-68
2021/04/28 02:19:10;;;;;;;9.05;6.97;;;;;;;;;;5133668;27;20054;-67
2021/04/28 02:21:39;;;;;;;11.57;7.18;;;;;;;;;;5133705;27;20058;-67
2021/04/28 02:24:06;;;;;;;11.75;7.35;;;;;;;;;;5133907;27;20658;-68
2021/04/28 02:26:32;;;;;;;12.75;8.20;;;;;;;;;;5133855;27;20047;-67
2021/04/28 02:28:58;;;;;;;13.27;7.50;;;;;;;;;;5133891;27;20478;-68
2021/04/28 02:31:25;;;;;;;8.93;6.25;;;;;;;;;;5133912;27;20147;-67
2021/04/28 02:33:51;;;;;;;12.27;7.15;;;;;;;;;;5133680;27;20047;-67
2021/04/28 02:36:17;;;;;;;11.73;6.85;;;;;;;;;;5132652;27;20061;-67
2021/04/28 02:38:46;;;;;;;10.40;6.90;;;;;;;;;;5133607;27;20072;-67
2021/04/28 02:41:13;;;;;;;14.77;7.40;;;;;;;;;;5133308;27;20480;-67
2021/04/28 02:43:39;;;;;;;12.98;8.65;;;;;;;;;;5128286;27;20060;-68
2021/04/28 02:46:07;;;;;;;12.93;8.75;;;;;;;;;;5116657;28;20452;-68
2021/04/28 02:48:34;;;;;;;12.80;8.43;;;;;;;;;;5133573;27;20422;-68
2021/04/28 02:51:01;;;;;;;12.07;7.88;;;;;;;;;;5133467;27;20050;-68
2021/04/28 02:53:28;;;;;;;13.05;7.55;;;;;;;;;;5133472;27;20054;-68
2021/04/28 02:55:55;;;;;;;14.63;8.27;;;;;;;;;;5133562;28;20062;-67
2021/04/28 02:58:22;;;;;;;11.68;8.57;;;;;;;;;;5133284;28;20074;-68
2021/04/28 03:00:48;;;;;;;17.52;9.55;;;;;;;;;;5133363;28;20062;-67
2021/04/28 03:03:15;;;;;;;14.50;9.95;;;;;;;;;;5133485;28;20051;-67
2021/04/28 03:05:42;;;;;;;13.65;8.35;;;;;;;;;;5133275;28;20051;-67
2021/04/28 03:08:08;;;;;;;13.15;8.38;;;;;;;;;;5133516;28;20046;-67
2021/04/28 03:10:34;;;;;;;14.40;8.02;;;;;;;;;;5133438;28;20495;-67
2021/04/28 03:13:00;;;;;;;14.23;8.40;;;;;;;;;;5133316;28;20099;-68
2021/04/28 03:15:27;;;;;;;13.60;9.52;;;;;;;;;;5133555;28;20071;-67
2021/04/28 03:17:53;;;;;;;14.45;10.00;;;;;;;;;;5132905;28;20047;-68
2021/04/28 03:20:19;;;;;;;14.10;9.13;;;;;;;;;;5133173;28;20095;-67
2021/04/28 03:22:46;;;;;;;12.93;8.13;;;;;;;;;;5133157;28;20051;-68
2021/04/28 03:25:13;;;;;;;13.77;8.88;;;;;;;;;;5132985;28;20043;-68
2021/04/28 03:27:39;;;;;;;16.38;9.95;;;;;;;;;;5132999;28;20044;-67
2021/04/28 03:30:07;;;;;;;15.48;8.88;;;;;;;;;;5131277;27;20047;-67
2021/04/28 03:32:33;;;;;;;19.98;10.07;;;;;;;;;;5132359;28;20047;-68
2021/04/28 03:34:59;;;;;;;13.85;9.23;;;;;;;;;;5148830;27;20039;-68
2021/04/28 03:37:26;;;;;;;14.15;8.93;;;;;;;;;;5119251;27;20492;-67
2021/04/28 03:39:53;;;;;;;14.35;9.13;;;;;;;;;;5153657;27;20062;-67
2021/04/28 03:42:22;;;;;;;14.38;8.88;;;;;;;;;;5153472;27;20080;-67
2021/04/28 03:44:48;;;;;;;13.07;7.88;;;;;;;;;;5119472;28;20061;-68
2021/04/28 03:47:14;;;;;;;17.48;9.00;;;;;;;;;;5123712;27;20472;-68
2021/04/28 03:49:40;;;;;;;14.45;8.82;;;;;;;;;;5136716;27;20134;-67
2021/04/28 03:52:06;;;;;;;16.73;9.07;;;;;;;;;;5135859;27;20051;-67
2021/04/28 03:54:32;;;;;;;16.80;9.65;;;;;;;;;;5136902;27;20047;-68
2021/04/28 03:56:59;;;;;;;13.85;9.07;;;;;;;;;;5136690;27;20039;-68
2021/04/28 03:59:25;;;;;;;13.93;8.85;;;;;;;;;;5136444;27;20100;-67
2021/04/28 04:01:51;;;;;;;15.07;8.25;;;;;;;;;;5136264;27;20133;-68
2021/04/28 04:04:17;;;;;;;23.17;12.07;;;;;;;;;;5136099;27;20058;-68
2021/04/28 04:06:43;;;;;;;17.73;9.40;;;;;;;;;;5135946;27;20050;-68
2021/04/28 04:09:09;;;;;;;15.30;8.75;;;;;;;;;;5136280;27;20055;-68
2021/04/28 04:11:35;;;;;;;19.55;9.82;;;;;;;;;;5136196;27;20138;-68
2021/04/28 04:14:02;;;;;;;17.13;9.32;;;;;;;;;;5136055;27;20093;-68
2021/04/28 04:16:28;;;;;;;19.33;11.10;;;;;;;;;;5136116;27;20055;-68
2021/04/28 04:18:54;;;;;;;13.07;8.77;;;;;;;;;;5135834;27;20047;-68
2021/04/28 04:21:20;;;;;;;15.80;9.75;;;;;;;;;;5133519;27;20048;-68
2021/04/28 04:23:46;;;;;;;12.98;9.25;;;;;;;;;;5138462;27;20038;-68
2021/04/28 04:26:12;;;;;;;18.77;10.05;;;;;;;;;;5137149;27;20066;-67
2021/04/28 04:28:38;;;;;;;16.48;9.32;;;;;;;;;;5135249;27;20479;-68
2021/04/28 04:31:05;;;;;;;14.90;9.50;;;;;;;;;;5135254;27;20404;-67
2021/04/28 04:33:31;;;;;;;19.42;11.52;;;;;;;;;;5134646;27;20039;-67
2021/04/28 04:35:57;;;;;;;16.42;9.82;;;;;;;;;;5132047;27;20043;-68
2021/04/28 04:38:23;;;;;;;20.42;10.38;;;;;;;;;;5134978;27;20039;-67
2021/04/28 04:40:49;;;;;;;18.13;10.60;;;;;;;;;;5134733;27;20050;-68
2021/04/28 04:43:15;;;;;;;14.43;9.32;;;;;;;;;;5134341;27;20039;-67
2021/04/28 04:45:41;;;;;;;19.20;10.77;;;;;;;;;;5133266;27;20051;-68
2021/04/28 04:48:09;;;;;;;18.80;11.13;;;;;;;;;;5133788;27;20067;-68
2021/04/28 04:50:36;;;;;;;15.07;11.00;;;;;;;;;;5134366;27;20043;-68
2021/04/28 04:53:02;;;;;;;20.75;10.93;;;;;;;;;;5135020;27;20051;-68
2021/04/28 04:55:28;;;;;;;16.45;10.43;;;;;;;;;;5134237;27;20392;-68
2021/04/28 04:57:54;;;;;;;18.73;10.68;;;;;;;;;;5133920;27;20533;-68
2021/04/28 05:00:21;;;;;;;15.05;10.18;;;;;;;;;;5121873;27;20134;-68
2021/04/28 05:02:47;;;;;;;22.50;11.35;;;;;;;;;;5113262;28;20104;-68
2021/04/28 05:05:15;;;;;;;16.45;12.43;;;;;;;;;;5114570;28;20637;-68
2021/04/28 05:07:41;;;;;;;19.80;10.60;;;;;;;;;;5115492;28;20048;-68
2021/04/28 05:10:10;;;;;;;17.58;12.07;;;;;;;;;;5115145;28;20079;-68
2021/04/28 05:12:36;;;;;;;16.95;10.38;;;;;;;;;;5114995;28;20047;-68
2021/04/28 05:15:04;;;;;;;17.58;10.95;;;;;;;;;;5114747;28;20101;-68
2021/04/28 05:17:30;;;;;;;16.48;11.70;;;;;;;;;;5114658;28;20051;-68
2021/04/28 05:19:56;;;;;;;19.65;12.00;;;;;;;;;;5114385;28;20059;-68
2021/04/28 05:22:25;;;;;;;16.05;10.80;;;;;;;;;;5114873;28;20164;-68
2021/04/28 05:24:51;;;;;;;17.83;10.80;;;;;;;;;;5114253;28;20048;-68
2021/04/28 05:27:17;;;;;;;20.85;11.25;;;;;;;;;;5122223;27;20093;-68
2021/04/28 05:29:43;;;;;;;17.73;10.95;;;;;;;;;;5134982;27;20412;-68
2021/04/28 05:32:09;;;;;;;22.80;11.63;;;;;;;;;;5134554;27;20065;-68
2021/04/28 05:34:35;;;;;;;18.98;10.90;;;;;;;;;;5135074;27;20047;-68
2021/04/28 05:37:01;;;;;;;26.77;12.45;;;;;;;;;;5134633;27;20093;-68
2021/04/28 05:39:28;;;;;;;20.90;12.50;;;;;;;;;;5134839;27;20047;-68
2021/04/28 05:41:54;;;;;;;19.65;12.70;;;;;;;;;;5134882;27;20391;-68
2021/04/28 05:44:20;;;;;;;20.90;12.73;;;;;;;;;;5134398;27;20086;-68
2021/04/28 05:46:47;;;;;;;17.92;12.43;;;;;;;;;;5133637;27;20779;-68
2021/04/28 05:49:14;;;;;;;19.95;12.80;;;;;;;;;;5132485;27;20055;-68
2021/04/28 05:51:40;;;;;;;19.70;12.93;;;;;;;;;;5134358;27;20422;-68
2021/04/28 05:54:07;;;;;;;19.25;12.68;;;;;;;;;;5134615;27;20055;-68
2021/04/28 05:56:36;;;;;;;17.83;13.40;;;;;;;;;;5134370;27;20531;-68
2021/04/28 05:59:02;;;;;;;21.60;13.57;;;;;;;;;;5133544;27;20091;-68
2021/04/28 06:01:28;;;;;;;17.20;13.55;;;;;;;;;;5134200;27;20047;-68
2021/04/28 06:03:54;;;;;;;21.38;14.07;;;;;;;;;;5134468;27;20059;-68
2021/04/28 06:06:20;;;;;;;17.08;12.75;;;;;;;;;;5134285;27;20584;-70
2021/04/28 06:08:46;;;;;;;20.38;14.23;;;;;;;;;;5133900;27;20092;-67
2021/04/28 06:11:12;;;;;;;22.98;12.80;;;;;;;;;;5133527;27;20555;-67
2021/04/28 06:13:39;;;;;;;25.88;14.45;;;;;;;;;;5133609;27;20084;-67
2021/04/28 06:16:05;;;;;;;18.38;13.25;;;;;;;;;;5134216;27;20047;-67
2021/04/28 06:18:31;;;;;;;23.40;14.18;;;;;;;;;;5133964;27;20054;-67
2021/04/28 06:20:57;;;;;;;19.52;12.93;;;;;;;;;;5134347;27;20500;-67
2021/04/28 06:23:23;;;;;;;21.98;13.45;;;;;;;;;;5134069;27;20051;-68
2021/04/28 06:25:49;;;;;;;19.83;13.68;;;;;;;;;;5133977;27;20522;-68
2021/04/28 06:28:15;;;;;;;16.30;12.30;;;;;;;;;;5133622;27;20070;-67
2021/04/28 06:30:42;;;;;;;19.83;14.00;;;;;;;;;;5133733;27;20057;-67
2021/04/28 06:33:08;;;;;;;17.55;13.13;;;;;;;;;;5134084;27;20063;-67
2021/04/28 06:35:34;;;;;;;19.42;13.70;;;;;;;;;;5134080;27;20466;-71
2021/04/28 06:38:00;;;;;;;19.23;13.20;;;;;;;;;;5133904;27;20087;-68
2021/04/28 06:40:27;;;;;;;19.15;12.88;;;;;;;;;;5133608;27;20051;-67
2021/04/28 06:42:53;;;;;;;18.90;13.80;;;;;;;;;;5133087;27;20043;-67
2021/04/28 06:45:19;;;;;;;22.25;13.60;;;;;;;;;;5133349;27;20055;-67
2021/04/28 06:47:45;;;;;;;18.60;12.45;;;;;;;;;;5131108;27;20039;-67
2021/04/28 06:50:12;;;;;;;16.35;13.10;;;;;;;;;;5117601;27;20052;-68
2021/04/28 06:52:40;;;;;;;18.00;12.57;;;;;;;;;;5133553;27;20407;-68
2021/04/28 06:55:07;;;;;;;15.68;12.15;;;;;;;;;;5133567;27;20083;-67
2021/04/28 06:57:33;;;;;;;19.80;13.07;;;;;;;;;;5133362;28;20460;-67
2021/04/28 06:59:59;;;;;;;19.42;12.75;;;;;;;;;;5133547;28;20043;-68
2021/04/28 07:02:25;;;;;;;18.90;12.63;;;;;;;;;;5133588;28;20395;-68
2021/04/28 07:04:51;;;;;;;22.33;15.93;;;;;;;;;;5133379;28;20044;-68
2021/04/28 07:07:17;;;;;;;18.13;14.00;;;;;;;;;;5133374;28;20047;-67
2021/04/28 07:09:43;;;;;;;19.80;13.45;;;;;;;;;;5133657;28;20077;-67
2021/04/28 07:12:09;;;;;;;15.43;12.23;;;;;;;;;;5133900;28;20535;-67
2021/04/28 07:14:35;;;;;;;15.98;12.15;;;;;;;;;;5133460;28;20075;-67
2021/04/28 07:17:01;;;;;;;19.35;12.43;;;;;;;;;;5133012;28;20452;-66
2021/04/28 07:19:27;;;;;;;18.23;12.80;;;;;;;;;;5132982;28;20047;-66
2021/04/28 07:21:54;;;;;;;17.50;12.55;;;;;;;;;;5133983;27;20130;-67
2021/04/28 07:24:20;;;;;;;20.17;12.95;;;;;;;;;;5137276;27;20371;-66
2021/04/28 07:26:46;;;;;;;15.55;12.00;;;;;;;;;;5136938;27;20078;-67
2021/04/28 07:29:12;;;;;;;13.77;11.15;;;;;;;;;;5136981;27;20392;-67
2021/04/28 07:31:38;;;;;;;14.90;12.02;;;;;;;;;;5137105;27;20100;-68
2021/04/28 07:34:04;;;;;;;19.98;14.10;;;;;;;;;;5137424;27;20047;-68
2021/04/28 07:36:30;;;;;;;15.77;12.10;;;;;;;;;;5137109;27;20043;-68
2021/04/28 07:38:57;;;;;;;16.80;11.60;;;;;;;;;;5136701;27;20152;-67
2021/04/28 07:41:23;;;;;;;16.90;11.57;;;;;;;;;;5137197;27;20096;-67
2021/04/28 07:43:49;;;;;;;16.88;11.50;;;;;;;;;;5136928;27;20450;-67
2021/04/28 07:46:15;;;;;;;13.40;11.30;;;;;;;;;;5137043;27;20101;-68
2021/04/28 07:48:41;;;;;;;12.95;10.27;;;;;;;;;;5134176;27;20680;-71
2021/04/28 07:51:08;;;;;;;15.23;11.20;;;;;;;;;;5126352;27;20055;-70
2021/04/28 07:53:34;;;;;;;14.93;11.95;;;;;;;;;;5128052;27;20130;-68
2021/04/28 07:56:00;;;;;;;13.18;10.73;;;;;;;;;;5136789;27;20051;-67
2021/04/28 07:58:26;;;;;;;12.52;10.40;;;;;;;;;;5136631;27;20051;-66
2021/04/28 08:00:52;;;;;;;14.45;10.77;;;;;;;;;;5136454;27;20480;-68
2021/04/28 08:03:18;;;;;;;13.75;10.80;;;;;;;;;;5136575;27;20057;-67
2021/04/28 08:05:44;;;;;;;15.40;10.50;;;;;;;;;;5142128;27;20043;-68
2021/04/28 08:08:10;;;;;;;16.10;10.82;;;;;;;;;;5142605;27;20047;-68
2021/04/28 08:10:36;;;;;;;14.68;10.40;;;;;;;;;;5136450;27;20090;-67
2021/04/28 08:13:08;;;;;;;16.70;11.55;;;;;;;;;;5136472;27;20051;-67
2021/04/28 08:15:34;;;;;;;13.60;9.77;;;;;;;;;;5136570;27;20082;-67
2021/04/28 08:18:00;;;;;;;14.10;9.35;;;;;;;;;;5136072;27;20472;-67
2021/04/28 08:20:26;;;;;;;15.35;10.68;;;;;;;;;;5136195;27;20051;-67
2021/04/28 08:22:52;;;;;;;11.45;10.02;;;;;;;;;;5136048;27;20492;-67
2021/04/28 08:25:18;;;;;;;11.77;10.15;;;;;;;;;;5136303;27;20108;-68
2021/04/28 08:27:44;;;;;;;15.15;10.77;;;;;;;;;;5136180;27;20039;-69
2021/04/28 08:30:13;;;;;;;21.15;10.52;;;;;;;;;;5136307;27;20582;-67
2021/04/28 08:32:39;;;;;;;13.48;9.68;;;;;;;;;;5135676;27;20047;-67
2021/04/28 08:35:06;;;;;;;15.38;9.15;;;;;;;;;;5134922;27;20070;-70
2021/04/28 08:37:33;;;;;;;12.55;8.93;;;;;;;;;;5136053;27;20043;-68
2021/04/28 08:39:59;;;;;;;13.23;9.07;;;;;;;;;;5135909;27;20407;-67
2021/04/28 08:42:25;;;;;;;14.27;9.80;;;;;;;;;;5135668;27;20051;-68
2021/04/28 08:44:51;;;;;;;18.65;9.65;;;;;;;;;;5135760;27;20043;-66
2021/04/28 08:47:20;;;;;;;12.32;9.07;;;;;;;;;;5135659;27;20043;-67
2021/04/28 08:49:46;;;;;;;12.00;7.88;;;;;;;;;;5130021;27;20515;-68
2021/04/28 08:52:13;;;;;;;11.70;8.93;;;;;;;;;;5126566;27;20043;-68
2021/04/28 08:54:39;;;;;;;15.77;8.50;;;;;;;;;;5135711;27;20043;-67
2021/04/28 08:57:05;;;;;;;11.90;8.35;;;;;;;;;;5135202;27;20058;-67
2021/04/28 08:59:31;;;;;;;10.40;8.88;;;;;;;;;;5135168;27;20054;-68
2021/04/28 09:02:11;;;;;;;13.00;8.43;;;;;;;;;;5135618;27;20129;-67
2021/04/28 09:04:38;;;;;;;11.60;8.30;;;;;;;;;;5135402;27;20043;-68
2021/04/28 09:07:04;;;;;;;13.95;8.80;;;;;;;;;;5134610;27;20054;-68
2021/04/28 09:09:30;;;;;;;11.40;8.15;;;;;;;;;;5135073;27;20047;-67
2021/04/28 09:11:58;;;;;;;11.20;8.52;;;;;;;;;;5134534;27;20506;-69
2021/04/28 09:14:27;;;;;;;11.05;7.80;;;;;;;;;;5137747;27;20039;-67
2021/04/28 09:17:01;;;;;;;12.07;8.70;;;;;;;;;;5134070;27;20523;-67
2021/04/28 09:19:31;;;;;;;10.52;7.35;;;;;;;;;;5129898;27;20047;-67
2021/04/28 09:22:00;;;;;;;11.70;9.57;;;;;;;;;;5135154;27;20058;-67
2021/04/28 09:24:28;;;;;;;10.88;8.18;;;;;;;;;;5133790;27;20058;-67
2021/04/28 09:26:56;;;;;;;11.65;7.65;;;;;;;;;;5135182;27;20054;-67
2021/04/28 09:29:25;;;;;;;12.45;8.35;;;;;;;;;;5133779;27;20445;-67
2021/04/28 09:31:59;;;;;;;9.45;7.93;;;;;;;;;;5133900;27;20047;-68
2021/04/28 09:34:27;;;;;;;10.35;7.95;;;;;;;;;;5133782;27;20055;-68
2021/04/28 09:37:07;;;;;;;9.85;8.30;;;;;;;;;;5133463;27;20051;-68
2021/04/28 09:39:39;;;;;;;11.50;7.88;;;;;;;;;;5133859;27;20476;-68
2021/04/28 09:42:06;;;;;;;12.02;7.53;;;;;;;;;;5133808;27;20055;-68
2021/04/28 09:44:33;;;;;;;12.73;8.88;;;;;;;;;;5133193;27;20043;-68
2021/04/28 09:47:05;;;;;;;30.75;10.02;;;;;;;;;;5133691;27;20043;-68
2021/04/28 09:49:52;;;;;;;12.00;7.88;;;;;;;;;;5133812;27;20055;-68
2021/04/28 09:52:21;;;;;;;12.02;8.43;;;;;;;;;;5131397;27;20115;-68
2021/04/28 09:54:48;;;;;;;9.98;7.60;;;;;;;;;;5133281;27;20043;-68
2021/04/28 09:57:17;;;;;;;12.70;8.88;;;;;;;;;;5133266;27;20047;-68
2021/04/28 09:59:48;;;;;;;11.05;7.82;;;;;;;;;;5133856;27;20047;-68
2021/04/28 10:02:23;;;;;;;8.85;7.15;;;;;;;;;;5133655;27;20134;-67
2021/04/28 10:04:49;;;;;;;10.75;7.47;;;;;;;;;;5133269;27;20058;-68
2021/04/28 10:07:23;;;;;;;12.15;7.70;;;;;;;;;;5133275;27;20082;-68
2021/04/28 10:09:49;;;;;;;13.05;8.63;;;;;;;;;;5130477;27;20545;-69
2021/04/28 10:12:16;;;;;;;11.32;8.13;;;;;;;;;;5129128;27;20130;-70
2021/04/28 10:14:42;;;;;;;9.77;7.95;;;;;;;;;;5133218;27;20043;-68
2021/04/28 10:17:09;;;;;;;11.65;7.75;;;;;;;;;;5132931;27;20116;-69
2021/04/28 10:19:37;;;;;;;13.00;8.55;;;;;;;;;;5132981;27;20051;-70
2021/04/28 10:22:05;;;;;;;9.75;7.45;;;;;;;;;;5140415;27;20051;-68
2021/04/28 10:24:33;;;;;;;9.75;8.70;;;;;;;;;;5139449;27;20559;-67
2021/04/28 10:26:59;;;;;;;9.18;7.32;;;;;;;;;;5134052;27;20043;-69
2021/04/28 10:29:26;;;;;;;12.05;7.88;;;;;;;;;;5133953;27;20223;-68
2021/04/28 10:31:53;;;;;;;11.02;9.07;;;;;;;;;;5133780;27;20043;-68
2021/04/28 10:34:25;;;;;;;11.55;8.48;;;;;;;;;;5133785;27;20055;-69
2021/04/28 10:36:53;;;;;;;11.18;8.88;;;;;;;;;;5137230;27;20111;-69
2021/04/28 10:39:21;;;;;;;13.70;8.30;;;;;;;;;;5133373;27;20038;-69
2021/04/28 10:41:48;;;;;;;13.60;8.45;;;;;;;;;;5142132;27;20053;-69
2021/04/28 10:44:39;;;;;;;9.35;7.47;;;;;;;;;;5154073;27;20051;-69
2021/04/28 10:47:36;;;;;;;10.57;7.68;;;;;;;;;;5138832;27;20046;-68
2021/04/28 10:50:20;;;;;;;10.90;7.80;;;;;;;;;;5140749;27;20475;-68
2021/04/28 10:52:50;;;;;;;11.57;7.32;;;;;;;;;;5126495;27;20043;-69
2021/04/28 10:55:37;;;;;;;10.73;7.80;;;;;;;;;;5132995;27;20054;-69
2021/04/28 10:58:04;;;;;;;10.43;8.05;;;;;;;;;;5144654;27;20527;-68
2021/04/28 11:00:30;;;;;;;10.38;7.18;;;;;;;;;;5139577;27;20053;-70
2021/04/28 11:02:56;;;;;;;10.63;7.65;;;;;;;;;;5134571;27;20477;-68
2021/04/28 11:05:26;;;;;;;10.93;7.53;;;;;;;;;;5133334;28;20043;-70
2021/04/28 11:07:53;;;;;;;10.57;7.00;;;;;;;;;;5133348;28;20044;-68
2021/04/28 11:10:30;;;;;;;10.30;7.38;;;;;;;;;;5133396;28;20119;-69
2021/04/28 11:13:09;;;;;;;10.38;7.80;;;;;;;;;;5133271;27;20176;-70
2021/04/28 11:15:46;;;;;;;10.60;7.32;;;;;;;;;;5133572;28;20082;-69
2021/04/28 11:18:30;;;;;;;7.68;6.25;;;;;;;;;;5133081;28;20404;-69
2021/04/28 11:21:12;;;;;;;10.13;7.45;;;;;;;;;;5126436;28;20073;-68
2021/04/28 11:23:39;;;;;;;10.65;7.55;;;;;;;;;;5133091;28;20129;-69
2021/04/28 11:26:27;;;;;;;11.57;7.93;;;;;;;;;;5133252;28;20055;-68
2021/04/28 11:28:56;;;;;;;9.90;7.80;;;;;;;;;;5132988;28;20088;-68
2021/04/28 11:31:22;;;;;;;9.82;8.30;;;;;;;;;;5132330;28;20059;-69
2021/04/28 11:33:48;;;;;;;11.30;7.85;;;;;;;;;;5131700;28;20051;-68
2021/04/28 11:36:17;;;;;;;11.05;7.97;;;;;;;;;;5131697;27;20112;-67
2021/04/28 11:38:46;;;;;;;10.15;7.38;;;;;;;;;;5136128;27;20039;-69
2021/04/28 11:41:13;;;;;;;9.93;7.57;;;;;;;;;;5137150;27;20499;-68
2021/04/28 11:43:42;;;;;;;10.57;8.57;;;;;;;;;;5141727;27;20043;-67
2021/04/28 11:46:11;;;;;;;11.10;7.53;;;;;;;;;;5141824;27;20042;-69
2021/04/28 11:48:38;;;;;;;11.00;7.25;;;;;;;;;;5145639;27;20046;-69
2021/04/28 11:51:06;;;;;;;9.90;7.10;;;;;;;;;;5144007;27;20100;-68
2021/04/28 11:53:32;;;;;;;12.40;8.02;;;;;;;;;;5138799;27;20402;-68
2021/04/28 11:55:59;;;;;;;9.27;7.28;;;;;;;;;;5137108;27;20407;-67
2021/04/28 11:58:28;;;;;;;9.82;8.07;;;;;;;;;;5141656;27;20050;-67
2021/04/28 12:01:03;;;;;;;12.18;8.00;;;;;;;;;;5141934;27;20130;-68
2021/04/28 12:03:30;;;;;;;10.05;7.63;;;;;;;;;;5142886;27;20049;-69
2021/04/28 12:05:56;;;;;;;11.70;7.22;;;;;;;;;;5141461;27;20047;-69
2021/04/28 12:08:22;;;;;;;20.58;8.50;;;;;;;;;;5142153;27;20069;-69
2021/04/28 12:10:52;;;;;;;12.48;7.93;;;;;;;;;;5145570;27;20046;-68
2021/04/28 12:13:21;;;;;;;8.80;7.13;;;;;;;;;;5146407;27;20043;-70
2021/04/28 12:15:54;;;;;;;8.80;7.03;;;;;;;;;;5148150;27;20424;-68
2021/04/28 12:18:31;;;;;;;9.75;7.45;;;;;;;;;;5143173;27;20041;-68
2021/04/28 12:20:58;;;;;;;13.75;7.28;;;;;;;;;;5147405;27;20054;-68
2021/04/28 12:23:25;;;;;;;11.73;7.75;;;;;;;;;;5147209;27;20174;-71
2021/04/28 12:25:51;;;;;;;10.70;7.00;;;;;;;;;;5146735;27;20130;-70
2021/04/28 12:28:17;;;;;;;9.70;6.70;;;;;;;;;;5143948;27;20049;-71
2021/04/28 12:30:43;;;;;;;9.10;6.85;;;;;;;;;;5146536;27;20471;-70
2021/04/28 12:33:09;;;;;;;9.80;6.95;;;;;;;;;;5143313;27;20047;-69
2021/04/28 12:35:36;;;;;;;10.30;7.18;;;;;;;;;;5146081;27;20452;-71
2021/04/28 12:38:05;;;;;;;8.70;6.10;;;;;;;;;;5143945;27;20051;-70
2021/04/28 12:40:33;;;;;;;11.18;6.95;;;;;;;;;;5134431;27;20484;-69
2021/04/28 12:42:59;;;;;;;9.07;7.32;;;;;;;;;;5133804;27;21300;-69
2021/04/28 12:45:25;;;;;;;9.00;6.20;;;;;;;;;;5139609;27;20051;-69
2021/04/28 12:47:51;;;;;;;11.68;6.25;;;;;;;;;;5140463;27;20479;-70
2021/04/28 12:50:24;;;;;;;9.52;5.57;;;;;;;;;;5140857;27;20039;-69
2021/04/28 12:52:51;;;;;;;9.13;6.13;;;;;;;;;;5132601;27;20051;-68
2021/04/28 12:55:32;;;;;;;7.75;6.45;;;;;;;;;;5141891;27;20379;-68
2021/04/28 12:58:00;;;;;;;7.18;5.55;;;;;;;;;;5139164;27;20051;-69
2021/04/28 13:00:28;;;;;;;10.07;7.60;;;;;;;;;;5139747;27;20192;-68
2021/04/28 13:03:12;;;;;;;8.43;7.07;;;;;;;;;;5134849;27;20395;-68
2021/04/28 13:05:39;;;;;;;9.88;7.22;;;;;;;;;;5137400;27;20051;-68
2021/04/28 13:08:29;;;;;;;7.03;5.50;;;;;;;;;;5149519;27;20047;-68
2021/04/28 13:11:16;;;;;;;8.20;6.50;;;;;;;;;;5151397;27;20134;-68
2021/04/28 13:13:49;;;;;;;7.13;5.60;;;;;;;;;;5143366;27;20043;-68
2021/04/28 13:16:34;;;;;;;7.82;5.85;;;;;;;;;;5136963;27;20483;-67
2021/04/28 13:19:04;;;;;;;12.40;6.68;;;;;;;;;;5137414;27;20510;-69
2021/04/28 13:21:32;;;;;;;8.30;5.88;;;;;;;;;;5137612;27;20047;-68
2021/04/28 13:24:08;;;;;;;7.88;5.55;;;;;;;;;;5138612;27;20058;-69
2021/04/28 13:26:35;;;;;;;8.55;5.95;;;;;;;;;;5143502;27;20479;-69
2021/04/28 13:29:02;;;;;;;10.20;6.53;;;;;;;;;;5144762;27;20046;-69
2021/04/28 13:31:29;;;;;;;10.38;6.38;;;;;;;;;;5140347;27;20057;-69
2021/04/28 13:33:57;;;;;;;8.63;5.40;;;;;;;;;;5135258;27;20047;-68
2021/04/28 13:36:28;;;;;;;6.85;5.57;;;;;;;;;;5133836;27;20129;-68
2021/04/28 13:38:56;;;;;;;8.75;5.40;;;;;;;;;;5134653;27;20138;-68
2021/04/28 13:41:24;;;;;;;7.65;5.28;;;;;;;;;;5133466;27;20361;-68
2021/04/28 13:43:50;;;;;;;11.73;5.90;;;;;;;;;;5132816;27;20510;-68
2021/04/28 13:46:16;;;;;;;8.10;5.90;;;;;;;;;;5134510;27;20055;-68
2021/04/28 13:48:43;;;;;;;8.88;6.05;;;;;;;;;;5137016;27;20043;-68
2021/04/28 13:51:10;;;;;;;10.32;5.93;;;;;;;;;;5155066;27;20047;-68
2021/04/28 13:53:36;;;;;;;12.27;6.30;;;;;;;;;;5152300;27;20547;-68
2021/04/28 13:56:02;;;;;;;9.77;5.57;;;;;;;;;;5129967;27;20055;-68
2021/04/28 13:58:29;;;;;;;11.30;6.00;;;;;;;;;;5128650;27;20059;-68
2021/04/28 14:00:55;;;;;;;8.32;4.90;;;;;;;;;;5151611;27;20054;-70
2021/04/28 14:03:21;;;;;;;7.70;5.70;;;;;;;;;;5153428;27;20126;-69
2021/04/28 14:05:47;;;;;;;8.88;5.30;;;;;;;;;;5155133;27;20149;-69
2021/04/28 14:08:14;;;;;;;12.13;6.05;;;;;;;;;;5154885;27;20074;-67
2021/04/28 14:10:40;;;;;;;8.15;5.75;;;;;;;;;;5154834;27;20046;-69
2021/04/28 14:13:06;;;;;;;7.82;5.22;;;;;;;;;;5149556;27;20384;-71
2021/04/28 14:15:33;;;;;;;8.23;5.75;;;;;;;;;;5134399;27;20046;-68
2021/04/28 14:17:59;;;;;;;8.88;6.75;;;;;;;;;;5134226;27;20043;-68
2021/04/28 14:20:25;;;;;;;9.60;5.45;;;;;;;;;;5134168;27;20116;-68
2021/04/28 14:22:51;;;;;;;8.82;5.25;;;;;;;;;;5136400;27;20050;-68
2021/04/28 14:25:17;;;;;;;8.00;5.78;;;;;;;;;;5154565;27;20050;-68
2021/04/28 14:27:42;;;;;;;11.18;6.70;;;;;;;;;;5154468;27;20141;-68
2021/04/28 14:30:09;;;;;;;8.93;5.85;;;;;;;;;;5154383;27;20089;-68
2021/04/28 14:32:36;;;;;;;7.93;5.60;;;;;;;;;;5154165;27;20047;-68